This demonstration page uses our WeatherBlox Daily Observations layout. Learn more.

38.89511, -77.03637

Hourly Observations for July 17, 2017

Temp ( °F °C ) Dew Point ( °F °C ) Humidity (%) Winds ( mph kmh ) Pressure ( in mb ) Visibility ( mi km ) Precip ( " mm )
12:52 am 00:52 Mostly Cloudy 79 26.1 71 21.7 77 77 S 9 15 29.97 1015 10 16.09344 0 0
1:52 am 01:52 Mostly Cloudy 79 26.1 72 22.2 79 79 SSW 6 9 29.97 1015 10 16.09344 0 0
2:52 am 02:52 Mostly Cloudy 77 25 72 22.2 85 85 S 5 7 29.97 1015 10 16.09344 0 0
3:52 am 03:52 Partly Cloudy 77 25 73 22.8 88 88 S 8 13 29.97 1015 10 16.09344 0 0
4:52 am 04:52 Partly Cloudy 77 25 74 23.3 90 90 SSE 5 7 29.97 1015 10 16.09344 0 0
5:52 am 05:52 Mostly Cloudy 76 24.4 74 23.3 94 94 SSE 5 7 29.97 1015 10 16.09344 0 0
6:52 am 06:52 Mostly Cloudy 77 25 74 23.3 90 90 SE 5 7 29.97 1015 10 16.09344 0 0
7:01 am 07:01 Mostly Cloudy 77 25 74 23.3 90 90 SE 5 7 30 1016 10 16.09344 0 0
7:52 am 07:52 Mostly Cloudy 78 25.6 74 23.3 87 87 S 5 7 30 1016 10 16.09344 0 0
8:52 am 08:52 Mostly Cloudy 79 26.1 74 23.3 85 85 SSW 6 9 30 1016 10 16.09344 0 0
9:52 am 09:52 Mostly Cloudy 82 27.8 74 23.3 77 77 SSE 5 7 30 1016 10 16.09344 0 0
10:52 am 10:52 Mostly Cloudy 85 29.4 75 23.9 72 72 SSW 7 11 30 1016 10 16.09344 0 0
11:52 am 11:52 Mostly Cloudy 87 30.6 73 22.8 63 63 S 9 15 30 1016 10 16.09344 0 0
12:52 pm 12:52 Mostly Cloudy 87 30.6 71 21.7 59 59 S 9 15 30 1016 10 16.09344 0 0
1:52 pm 13:52 Mostly Cloudy 87 30.6 72 22.2 61 61 S 12 19 29.97 1015 10 16.09344 0 0
2:10 pm 14:10 Mostly Cloudy with Thunderstorms 88 31.1 70 21.1 55 55 S 9 15 30 1016 10 16.09344 0 0
2:29 pm 14:29 Mostly Cloudy 87 30.6 71 21.7 59 59 S 9 15 30 1016 10 16.09344 0 0
2:41 pm 14:41 Mostly Cloudy with Light Thunderstorms 87 30.6 70 21.1 57 57 SSE 10 17 30 1016 10 16.09344 0.001 0.001
2:52 pm 14:52 Mostly Cloudy with Thunderstorms 88 31.1 71 21.7 57 57 S 10 17 29.97 1015 10 16.09344 0.001 0.001
3:23 pm 15:23 Mostly Cloudy 90 32.2 72 22.2 56 56 S 10 17 29.97 1015 10 16.09344 0 0
3:52 pm 15:52 Mostly Cloudy 89 31.7 71 21.7 55 55 SSE 9 15 29.97 1015 10 16.09344 0 0
4:52 pm 16:52 Mostly Cloudy 90 32.2 67 19.4 47 47 S 12 19 29.97 1015 10 16.09344 0 0
5:52 pm 17:52 Mostly Cloudy with Thunderstorms 87 30.6 71 21.7 59 59 ENE 8 13 29.97 1015 10 16.09344 0 0
6:20 pm 18:20 Partly Cloudy 85 29.4 72 22.2 65 65 ENE 12 19 30 1016 10 16.09344 0 0
6:52 pm 18:52 Partly Cloudy 87 30.6 72 22.2 61 61 E 6 9 29.97 1015 10 16.09344 0 0
7:52 pm 19:52 Mostly Cloudy 83 28.3 76 24.4 79 79 NE 16 26 30 1016 10 16.09344 0 0
8:10 pm 20:10 Mostly Cloudy 85 29.4 74 23.3 70 70 SE 9 15 30 1016 10 16.09344 0 0
8:22 pm 20:22 Mostly Cloudy 85 29.4 73 22.8 68 68 SE 13 20 30 1016 10 16.09344 0 0
8:52 pm 20:52 Cloudy 83 28.3 73 22.8 72 72 SSE 13 20 30 1016 10 16.09344 0 0
9:52 pm 21:52 Mostly Cloudy 81 27.2 73 22.8 77 77 S 8 13 30.03 1017 10 16.09344 0 0
10:52 pm 22:52 Mostly Cloudy 80 26.7 74 23.3 82 82 SSW 10 17 30.03 1017 10 16.09344 0 0
11:52 pm 23:52 Mostly Cloudy 80 26.7 74 23.3 82 82 SSE 5 7 30.03 1017 10 16.09344 0 0

Powered by AerisWeather